sensor_id;sensor_type;location;lat;lon;timestamp;P1;durP1;ratioP1;P2;durP2;ratioP2
48993;SDS011;34804;49.214;12.276;2022-08-23T00:02:15;10.15;;;5.93;;
48993;SDS011;34804;49.214;12.276;2022-08-23T00:04:49;8.60;;;5.95;;
48993;SDS011;34804;49.214;12.276;2022-08-23T00:07:38;7.90;;;6.35;;
48993;SDS011;34804;49.214;12.276;2022-08-23T00:10:10;8.48;;;5.50;;
48993;SDS011;34804;49.214;12.276;2022-08-23T00:12:38;9.93;;;5.50;;
48993;SDS011;34804;49.214;12.276;2022-08-23T00:15:06;9.05;;;6.25;;
48993;SDS011;34804;49.214;12.276;2022-08-23T00:17:36;8.65;;;5.90;;
48993;SDS011;34804;49.214;12.276;2022-08-23T00:20:06;9.82;;;6.22;;
48993;SDS011;34804;49.214;12.276;2022-08-23T00:22:36;8.50;;;5.90;;
48993;SDS011;34804;49.214;12.276;2022-08-23T00:25:03;8.50;;;5.60;;
48993;SDS011;34804;49.214;12.276;2022-08-23T00:27:32;10.10;;;6.63;;
48993;SDS011;34804;49.214;12.276;2022-08-23T00:30:00;10.35;;;5.82;;
48993;SDS011;34804;49.214;12.276;2022-08-23T00:32:32;8.27;;;6.00;;
48993;SDS011;34804;49.214;12.276;2022-08-23T00:35:01;10.30;;;6.00;;
48993;SDS011;34804;49.214;12.276;2022-08-23T00:37:29;8.82;;;6.28;;
48993;SDS011;34804;49.214;12.276;2022-08-23T00:39:58;9.48;;;5.70;;
48993;SDS011;34804;49.214;12.276;2022-08-23T00:45:36;8.98;;;5.78;;
48993;SDS011;34804;49.214;12.276;2022-08-23T00:48:26;10.95;;;6.00;;
48993;SDS011;34804;49.214;12.276;2022-08-23T00:51:16;8.80;;;5.43;;
48993;SDS011;34804;49.214;12.276;2022-08-23T00:53:47;9.88;;;5.70;;
48993;SDS011;34804;49.214;12.276;2022-08-23T00:56:18;7.93;;;5.70;;
48993;SDS011;34804;49.214;12.276;2022-08-23T00:58:48;7.05;;;5.47;;
48993;SDS011;34804;49.214;12.276;2022-08-23T01:01:16;7.53;;;5.82;;
48993;SDS011;34804;49.214;12.276;2022-08-23T01:03:45;8.82;;;6.03;;
48993;SDS011;34804;49.214;12.276;2022-08-23T01:06:37;7.28;;;5.80;;
48993;SDS011;34804;49.214;12.276;2022-08-23T01:09:07;11.77;;;6.60;;
48993;SDS011;34804;49.214;12.276;2022-08-23T01:15:04;9.52;;;6.35;;
48993;SDS011;34804;49.214;12.276;2022-08-23T01:17:39;9.45;;;5.65;;
48993;SDS011;34804;49.214;12.276;2022-08-23T01:20:20;8.90;;;5.72;;
48993;SDS011;34804;49.214;12.276;2022-08-23T01:25:40;8.38;;;6.40;;
48993;SDS011;34804;49.214;12.276;2022-08-23T01:28:11;10.27;;;6.65;;
48993;SDS011;34804;49.214;12.276;2022-08-23T01:30:39;9.25;;;6.53;;
48993;SDS011;34804;49.214;12.276;2022-08-23T01:33:08;7.28;;;5.93;;
48993;SDS011;34804;49.214;12.276;2022-08-23T01:35:39;8.85;;;6.00;;
48993;SDS011;34804;49.214;12.276;2022-08-23T01:38:13;10.07;;;6.38;;
48993;SDS011;34804;49.214;12.276;2022-08-23T01:40:40;7.40;;;5.80;;
48993;SDS011;34804;49.214;12.276;2022-08-23T01:43:08;10.15;;;6.13;;
48993;SDS011;34804;49.214;12.276;2022-08-23T01:45:36;9.52;;;5.80;;
48993;SDS011;34804;49.214;12.276;2022-08-23T01:48:05;9.55;;;6.20;;
48993;SDS011;34804;49.214;12.276;2022-08-23T01:50:32;7.78;;;5.82;;
48993;SDS011;34804;49.214;12.276;2022-08-23T01:52:59;8.93;;;6.30;;
48993;SDS011;34804;49.214;12.276;2022-08-23T01:55:27;23.98;;;6.70;;
48993;SDS011;34804;49.214;12.276;2022-08-23T01:57:56;9.95;;;5.82;;
48993;SDS011;34804;49.214;12.276;2022-08-23T02:00:29;9.65;;;6.30;;
48993;SDS011;34804;49.214;12.276;2022-08-23T02:02:59;9.05;;;6.85;;
48993;SDS011;34804;49.214;12.276;2022-08-23T02:05:27;8.35;;;6.45;;
48993;SDS011;34804;49.214;12.276;2022-08-23T02:07:54;8.77;;;6.47;;
48993;SDS011;34804;49.214;12.276;2022-08-23T02:10:22;12.43;;;6.43;;
48993;SDS011;34804;49.214;12.276;2022-08-23T02:12:48;8.80;;;6.57;;
48993;SDS011;34804;49.214;12.276;2022-08-23T02:15:16;10.13;;;6.35;;
48993;SDS011;34804;49.214;12.276;2022-08-23T02:17:43;11.80;;;6.55;;
48993;SDS011;34804;49.214;12.276;2022-08-23T02:20:10;8.52;;;5.50;;
48993;SDS011;34804;49.214;12.276;2022-08-23T02:22:37;6.88;;;5.32;;
48993;SDS011;34804;49.214;12.276;2022-08-23T02:25:04;8.43;;;6.10;;
48993;SDS011;34804;49.214;12.276;2022-08-23T02:27:32;11.55;;;6.65;;
48993;SDS011;34804;49.214;12.276;2022-08-23T02:29:59;12.75;;;6.38;;
48993;SDS011;34804;49.214;12.276;2022-08-23T02:32:27;10.25;;;6.53;;
48993;SDS011;34804;49.214;12.276;2022-08-23T02:34:54;8.48;;;6.30;;
48993;SDS011;34804;49.214;12.276;2022-08-23T02:37:31;11.73;;;5.78;;
48993;SDS011;34804;49.214;12.276;2022-08-23T02:39:58;9.77;;;6.28;;
48993;SDS011;34804;49.214;12.276;2022-08-23T02:42:25;10.65;;;6.07;;
48993;SDS011;34804;49.214;12.276;2022-08-23T02:44:52;8.55;;;6.32;;
48993;SDS011;34804;49.214;12.276;2022-08-23T02:47:20;10.82;;;6.68;;
48993;SDS011;34804;49.214;12.276;2022-08-23T02:49:46;10.75;;;6.10;;
48993;SDS011;34804;49.214;12.276;2022-08-23T02:52:13;10.45;;;7.28;;
48993;SDS011;34804;49.214;12.276;2022-08-23T02:54:41;10.65;;;6.60;;
48993;SDS011;34804;49.214;12.276;2022-08-23T02:57:09;10.93;;;7.00;;
48993;SDS011;34804;49.214;12.276;2022-08-23T02:59:36;8.50;;;6.22;;
48993;SDS011;34804;49.214;12.276;2022-08-23T03:02:07;8.63;;;5.90;;
48993;SDS011;34804;49.214;12.276;2022-08-23T03:04:34;7.95;;;5.47;;
48993;SDS011;34804;49.214;12.276;2022-08-23T03:07:01;8.25;;;5.97;;
48993;SDS011;34804;49.214;12.276;2022-08-23T03:09:28;9.18;;;6.35;;
48993;SDS011;34804;49.214;12.276;2022-08-23T03:11:55;9.40;;;6.32;;
48993;SDS011;34804;49.214;12.276;2022-08-23T03:14:22;8.88;;;6.78;;
48993;SDS011;34804;49.214;12.276;2022-08-23T03:16:50;11.38;;;7.15;;
48993;SDS011;34804;49.214;12.276;2022-08-23T03:19:17;10.30;;;6.63;;
48993;SDS011;34804;49.214;12.276;2022-08-23T03:21:44;11.80;;;7.40;;
48993;SDS011;34804;49.214;12.276;2022-08-23T03:24:12;9.85;;;7.88;;
48993;SDS011;34804;49.214;12.276;2022-08-23T03:26:42;11.82;;;7.35;;
48993;SDS011;34804;49.214;12.276;2022-08-23T03:29:11;10.27;;;6.75;;
48993;SDS011;34804;49.214;12.276;2022-08-23T03:31:39;9.93;;;6.95;;
48993;SDS011;34804;49.214;12.276;2022-08-23T03:34:06;11.15;;;8.02;;
48993;SDS011;34804;49.214;12.276;2022-08-23T03:36:33;12.32;;;7.72;;
48993;SDS011;34804;49.214;12.276;2022-08-23T03:39:00;12.32;;;7.38;;
48993;SDS011;34804;49.214;12.276;2022-08-23T03:41:27;9.80;;;6.80;;
48993;SDS011;34804;49.214;12.276;2022-08-23T03:43:54;10.15;;;6.80;;
48993;SDS011;34804;49.214;12.276;2022-08-23T03:46:21;10.18;;;6.80;;
48993;SDS011;34804;49.214;12.276;2022-08-23T03:48:53;8.95;;;6.65;;
48993;SDS011;34804;49.214;12.276;2022-08-23T03:51:22;9.60;;;7.00;;
48993;SDS011;34804;49.214;12.276;2022-08-23T03:53:50;10.50;;;6.40;;
48993;SDS011;34804;49.214;12.276;2022-08-23T03:56:23;10.65;;;6.47;;
48993;SDS011;34804;49.214;12.276;2022-08-23T03:58:57;7.70;;;6.32;;
48993;SDS011;34804;49.214;12.276;2022-08-23T04:01:27;10.43;;;6.88;;
48993;SDS011;34804;49.214;12.276;2022-08-23T04:03:54;10.80;;;6.10;;
48993;SDS011;34804;49.214;12.276;2022-08-23T04:06:26;9.30;;;5.90;;
48993;SDS011;34804;49.214;12.276;2022-08-23T04:08:54;11.25;;;6.18;;
48993;SDS011;34804;49.214;12.276;2022-08-23T04:11:21;10.98;;;5.93;;
48993;SDS011;34804;49.214;12.276;2022-08-23T04:13:50;8.50;;;6.22;;
48993;SDS011;34804;49.214;12.276;2022-08-23T04:16:17;8.98;;;5.93;;
48993;SDS011;34804;49.214;12.276;2022-08-23T04:18:44;10.70;;;6.65;;
48993;SDS011;34804;49.214;12.276;2022-08-23T04:21:12;8.23;;;5.78;;
48993;SDS011;34804;49.214;12.276;2022-08-23T04:23:45;10.98;;;6.10;;
48993;SDS011;34804;49.214;12.276;2022-08-23T04:26:12;10.38;;;6.30;;
48993;SDS011;34804;49.214;12.276;2022-08-23T04:28:38;9.32;;;6.35;;
48993;SDS011;34804;49.214;12.276;2022-08-23T04:31:06;9.88;;;6.07;;
48993;SDS011;34804;49.214;12.276;2022-08-23T04:33:33;9.50;;;6.50;;
48993;SDS011;34804;49.214;12.276;2022-08-23T04:36:05;7.55;;;5.70;;
48993;SDS011;34804;49.214;12.276;2022-08-23T04:38:32;7.65;;;5.30;;
48993;SDS011;34804;49.214;12.276;2022-08-23T04:40:59;9.13;;;6.07;;
48993;SDS011;34804;49.214;12.276;2022-08-23T04:43:45;8.07;;;6.03;;
48993;SDS011;34804;49.214;12.276;2022-08-23T04:46:13;6.90;;;5.55;;
48993;SDS011;34804;49.214;12.276;2022-08-23T04:48:42;7.70;;;5.50;;
48993;SDS011;34804;49.214;12.276;2022-08-23T04:51:10;8.40;;;5.85;;
48993;SDS011;34804;49.214;12.276;2022-08-23T04:53:37;16.65;;;7.45;;
48993;SDS011;34804;49.214;12.276;2022-08-23T04:56:05;24.75;;;9.95;;
48993;SDS011;34804;49.214;12.276;2022-08-23T04:58:32;45.40;;;10.70;;
48993;SDS011;34804;49.214;12.276;2022-08-23T05:01:01;26.90;;;9.63;;
48993;SDS011;34804;49.214;12.276;2022-08-23T05:03:30;19.65;;;10.00;;
48993;SDS011;34804;49.214;12.276;2022-08-23T05:05:59;16.85;;;9.35;;
48993;SDS011;34804;49.214;12.276;2022-08-23T05:08:27;25.75;;;10.00;;
48993;SDS011;34804;49.214;12.276;2022-08-23T05:10:54;16.27;;;9.35;;
48993;SDS011;34804;49.214;12.276;2022-08-23T05:13:20;24.08;;;9.35;;
48993;SDS011;34804;49.214;12.276;2022-08-23T05:15:49;23.67;;;9.38;;
48993;SDS011;34804;49.214;12.276;2022-08-23T05:18:17;30.58;;;8.80;;
48993;SDS011;34804;49.214;12.276;2022-08-23T05:20:45;17.17;;;8.68;;
48993;SDS011;34804;49.214;12.276;2022-08-23T05:23:11;14.63;;;8.77;;
48993;SDS011;34804;49.214;12.276;2022-08-23T05:25:38;25.63;;;8.75;;
48993;SDS011;34804;49.214;12.276;2022-08-23T05:28:21;13.98;;;8.57;;
48993;SDS011;34804;49.214;12.276;2022-08-23T05:31:09;10.57;;;7.88;;
48993;SDS011;34804;49.214;12.276;2022-08-23T05:33:38;11.55;;;7.75;;
48993;SDS011;34804;49.214;12.276;2022-08-23T05:36:06;10.95;;;8.48;;
48993;SDS011;34804;49.214;12.276;2022-08-23T05:38:34;9.98;;;8.38;;
48993;SDS011;34804;49.214;12.276;2022-08-23T05:41:02;11.43;;;8.73;;
48993;SDS011;34804;49.214;12.276;2022-08-23T05:43:32;17.83;;;10.25;;
48993;SDS011;34804;49.214;12.276;2022-08-23T05:48:38;34.92;;;9.70;;
48993;SDS011;34804;49.214;12.276;2022-08-23T05:51:08;12.18;;;9.60;;
48993;SDS011;34804;49.214;12.276;2022-08-23T05:53:38;17.42;;;10.93;;
48993;SDS011;34804;49.214;12.276;2022-08-23T05:56:07;15.05;;;10.25;;
48993;SDS011;34804;49.214;12.276;2022-08-23T05:58:38;12.30;;;9.48;;
48993;SDS011;34804;49.214;12.276;2022-08-23T06:01:06;12.95;;;10.35;;
48993;SDS011;34804;49.214;12.276;2022-08-23T06:03:33;13.52;;;9.82;;
48993;SDS011;34804;49.214;12.276;2022-08-23T06:06:00;14.27;;;10.80;;
48993;SDS011;34804;49.214;12.276;2022-08-23T06:08:28;13.48;;;10.95;;
48993;SDS011;34804;49.214;12.276;2022-08-23T06:11:02;11.40;;;10.20;;
48993;SDS011;34804;49.214;12.276;2022-08-23T06:13:31;12.00;;;10.70;;
48993;SDS011;34804;49.214;12.276;2022-08-23T06:15:58;14.05;;;11.55;;
48993;SDS011;34804;49.214;12.276;2022-08-23T06:18:39;14.60;;;12.25;;
48993;SDS011;34804;49.214;12.276;2022-08-23T06:21:07;14.82;;;12.65;;
48993;SDS011;34804;49.214;12.276;2022-08-23T06:23:36;15.93;;;12.02;;
48993;SDS011;34804;49.214;12.276;2022-08-23T06:26:13;14.65;;;11.57;;
48993;SDS011;34804;49.214;12.276;2022-08-23T06:28:43;14.30;;;11.18;;
48993;SDS011;34804;49.214;12.276;2022-08-23T06:31:17;14.52;;;11.38;;
48993;SDS011;34804;49.214;12.276;2022-08-23T06:34:05;12.45;;;10.23;;
48993;SDS011;34804;49.214;12.276;2022-08-23T06:36:32;14.95;;;10.50;;
48993;SDS011;34804;49.214;12.276;2022-08-23T06:38:59;13.55;;;10.68;;
48993;SDS011;34804;49.214;12.276;2022-08-23T06:41:26;13.10;;;10.80;;
48993;SDS011;34804;49.214;12.276;2022-08-23T06:43:53;11.73;;;10.50;;
48993;SDS011;34804;49.214;12.276;2022-08-23T06:46:21;11.15;;;9.43;;
48993;SDS011;34804;49.214;12.276;2022-08-23T06:48:54;11.00;;;9.55;;
48993;SDS011;34804;49.214;12.276;2022-08-23T06:53:55;11.90;;;8.98;;
48993;SDS011;34804;49.214;12.276;2022-08-23T06:56:28;11.93;;;9.20;;
48993;SDS011;34804;49.214;12.276;2022-08-23T06:58:55;15.10;;;9.48;;
48993;SDS011;34804;49.214;12.276;2022-08-23T07:01:37;9.98;;;8.82;;
48993;SDS011;34804;49.214;12.276;2022-08-23T07:04:13;11.80;;;9.20;;
48993;SDS011;34804;49.214;12.276;2022-08-23T07:06:42;13.02;;;9.80;;
48993;SDS011;34804;49.214;12.276;2022-08-23T07:09:09;9.95;;;8.40;;
48993;SDS011;34804;49.214;12.276;2022-08-23T07:11:36;9.95;;;8.80;;
48993;SDS011;34804;49.214;12.276;2022-08-23T07:14:05;9.85;;;8.63;;
48993;SDS011;34804;49.214;12.276;2022-08-23T07:16:42;14.23;;;10.77;;
48993;SDS011;34804;49.214;12.276;2022-08-23T07:19:16;11.93;;;9.50;;
48993;SDS011;34804;49.214;12.276;2022-08-23T07:21:45;13.98;;;11.18;;
48993;SDS011;34804;49.214;12.276;2022-08-23T07:24:15;11.27;;;9.95;;
48993;SDS011;34804;49.214;12.276;2022-08-23T07:26:43;11.15;;;9.90;;
48993;SDS011;34804;49.214;12.276;2022-08-23T07:29:11;12.85;;;6.78;;
48993;SDS011;34804;49.214;12.276;2022-08-23T07:31:43;10.15;;;6.03;;
48993;SDS011;34804;49.214;12.276;2022-08-23T07:36:41;10.95;;;5.90;;
48993;SDS011;34804;49.214;12.276;2022-08-23T07:39:10;8.63;;;5.68;;
48993;SDS011;34804;49.214;12.276;2022-08-23T07:41:38;8.20;;;5.50;;
48993;SDS011;34804;49.214;12.276;2022-08-23T07:44:05;7.82;;;4.70;;
48993;SDS011;34804;49.214;12.276;2022-08-23T07:46:35;15.50;;;5.63;;
48993;SDS011;34804;49.214;12.276;2022-08-23T07:49:06;9.45;;;4.95;;
48993;SDS011;34804;49.214;12.276;2022-08-23T07:51:34;8.00;;;4.68;;
48993;SDS011;34804;49.214;12.276;2022-08-23T07:54:02;8.15;;;4.00;;
48993;SDS011;34804;49.214;12.276;2022-08-23T07:56:30;9.13;;;4.55;;
48993;SDS011;34804;49.214;12.276;2022-08-23T07:58:57;6.65;;;4.00;;
48993;SDS011;34804;49.214;12.276;2022-08-23T08:01:25;14.05;;;4.40;;
48993;SDS011;34804;49.214;12.276;2022-08-23T08:03:54;7.57;;;4.05;;
48993;SDS011;34804;49.214;12.276;2022-08-23T08:06:26;8.43;;;4.45;;
48993;SDS011;34804;49.214;12.276;2022-08-23T08:08:56;7.68;;;4.57;;
48993;SDS011;34804;49.214;12.276;2022-08-23T08:11:24;8.40;;;3.60;;
48993;SDS011;34804;49.214;12.276;2022-08-23T08:14:02;5.85;;;3.90;;
48993;SDS011;34804;49.214;12.276;2022-08-23T08:16:32;5.88;;;3.72;;
48993;SDS011;34804;49.214;12.276;2022-08-23T08:19:02;6.90;;;3.58;;
48993;SDS011;34804;49.214;12.276;2022-08-23T08:21:33;7.60;;;3.30;;
48993;SDS011;34804;49.214;12.276;2022-08-23T08:24:05;6.40;;;3.10;;
48993;SDS011;34804;49.214;12.276;2022-08-23T08:26:33;9.10;;;3.80;;
48993;SDS011;34804;49.214;12.276;2022-08-23T08:29:00;6.57;;;3.05;;
48993;SDS011;34804;49.214;12.276;2022-08-23T08:31:27;6.28;;;2.60;;
48993;SDS011;34804;49.214;12.276;2022-08-23T08:33:54;5.95;;;2.78;;
48993;SDS011;34804;49.214;12.276;2022-08-23T08:38:53;5.77;;;2.77;;
48993;SDS011;34804;49.214;12.276;2022-08-23T08:44:34;6.65;;;3.13;;
48993;SDS011;34804;49.214;12.276;2022-08-23T08:47:13;5.38;;;2.25;;
48993;SDS011;34804;49.214;12.276;2022-08-23T08:52:25;5.65;;;2.10;;
48993;SDS011;34804;49.214;12.276;2022-08-23T08:55:06;5.07;;;2.20;;
48993;SDS011;34804;49.214;12.276;2022-08-23T08:57:38;5.22;;;2.40;;
48993;SDS011;34804;49.214;12.276;2022-08-23T09:02:41;6.93;;;2.20;;
48993;SDS011;34804;49.214;12.276;2022-08-23T09:05:15;3.50;;;1.80;;
48993;SDS011;34804;49.214;12.276;2022-08-23T09:10:30;3.90;;;2.20;;
48993;SDS011;34804;49.214;12.276;2022-08-23T09:15:57;5.07;;;1.75;;
48993;SDS011;34804;49.214;12.276;2022-08-23T09:18:30;6.40;;;2.20;;
48993;SDS011;34804;49.214;12.276;2022-08-23T09:21:00;3.78;;;2.05;;
48993;SDS011;34804;49.214;12.276;2022-08-23T09:23:35;4.15;;;2.22;;
48993;SDS011;34804;49.214;12.276;2022-08-23T09:28:41;4.65;;;1.98;;
48993;SDS011;34804;49.214;12.276;2022-08-23T09:31:11;4.30;;;1.80;;
48993;SDS011;34804;49.214;12.276;2022-08-23T09:34:01;4.88;;;1.92;;
48993;SDS011;34804;49.214;12.276;2022-08-23T09:36:31;5.60;;;1.77;;
48993;SDS011;34804;49.214;12.276;2022-08-23T09:39:02;5.70;;;1.65;;
48993;SDS011;34804;49.214;12.276;2022-08-23T09:41:33;4.03;;;1.70;;
48993;SDS011;34804;49.214;12.276;2022-08-23T09:44:03;4.45;;;1.65;;
48993;SDS011;34804;49.214;12.276;2022-08-23T09:46:35;5.43;;;1.50;;
48993;SDS011;34804;49.214;12.276;2022-08-23T09:49:21;2.85;;;1.27;;
48993;SDS011;34804;49.214;12.276;2022-08-23T09:51:48;2.22;;;1.20;;
48993;SDS011;34804;49.214;12.276;2022-08-23T09:54:20;5.03;;;1.80;;
48993;SDS011;34804;49.214;12.276;2022-08-23T09:56:56;2.10;;;1.27;;
48993;SDS011;34804;49.214;12.276;2022-08-23T10:01:59;4.90;;;1.90;;
48993;SDS011;34804;49.214;12.276;2022-08-23T10:06:55;3.78;;;1.35;;
48993;SDS011;34804;49.214;12.276;2022-08-23T10:11:51;3.75;;;1.30;;
48993;SDS011;34804;49.214;12.276;2022-08-23T10:14:19;2.55;;;1.30;;
48993;SDS011;34804;49.214;12.276;2022-08-23T10:17:00;3.40;;;1.48;;
48993;SDS011;34804;49.214;12.276;2022-08-23T10:19:34;2.72;;;1.40;;
48993;SDS011;34804;49.214;12.276;2022-08-23T10:22:19;4.10;;;1.20;;
48993;SDS011;34804;49.214;12.276;2022-08-23T10:30:32;2.38;;;1.20;;
48993;SDS011;34804;49.214;12.276;2022-08-23T10:36:02;2.88;;;1.20;;
48993;SDS011;34804;49.214;12.276;2022-08-23T10:38:44;7.45;;;1.48;;
48993;SDS011;34804;49.214;12.276;2022-08-23T10:41:31;4.03;;;1.17;;
48993;SDS011;34804;49.214;12.276;2022-08-23T10:47:06;4.07;;;1.40;;
48993;SDS011;34804;49.214;12.276;2022-08-23T10:49:36;5.20;;;1.60;;
48993;SDS011;34804;49.214;12.276;2022-08-23T10:52:06;2.85;;;1.40;;
48993;SDS011;34804;49.214;12.276;2022-08-23T10:54:44;3.67;;;1.20;;
48993;SDS011;34804;49.214;12.276;2022-08-23T10:57:38;3.28;;;1.10;;
48993;SDS011;34804;49.214;12.276;2022-08-23T11:00:07;2.33;;;1.05;;
48993;SDS011;34804;49.214;12.276;2022-08-23T11:05:40;2.83;;;1.23;;
48993;SDS011;34804;49.214;12.276;2022-08-23T11:08:10;3.45;;;1.30;;
48993;SDS011;34804;49.214;12.276;2022-08-23T11:10:56;1.95;;;1.02;;
48993;SDS011;34804;49.214;12.276;2022-08-23T11:13:24;4.88;;;1.25;;
48993;SDS011;34804;49.214;12.276;2022-08-23T11:18:45;5.93;;;1.40;;
48993;SDS011;34804;49.214;12.276;2022-08-23T11:28:51;3.58;;;1.23;;
48993;SDS011;34804;49.214;12.276;2022-08-23T11:31:28;3.75;;;1.10;;
48993;SDS011;34804;49.214;12.276;2022-08-23T11:36:44;3.35;;;1.15;;
48993;SDS011;34804;49.214;12.276;2022-08-23T11:42:31;1.98;;;1.10;;
48993;SDS011;34804;49.214;12.276;2022-08-23T11:47:51;1.85;;;1.08;;
48993;SDS011;34804;49.214;12.276;2022-08-23T12:16:06;4.43;;;1.25;;
48993;SDS011;34804;49.214;12.276;2022-08-23T12:23:49;3.20;;;1.40;;
48993;SDS011;34804;49.214;12.276;2022-08-23T12:31:31;2.35;;;1.15;;
48993;SDS011;34804;49.214;12.276;2022-08-23T12:36:44;2.97;;;1.00;;
48993;SDS011;34804;49.214;12.276;2022-08-23T12:39:28;3.70;;;1.15;;
48993;SDS011;34804;49.214;12.276;2022-08-23T12:42:10;3.17;;;1.25;;
48993;SDS011;34804;49.214;12.276;2022-08-23T12:44:45;2.10;;;1.10;;
48993;SDS011;34804;49.214;12.276;2022-08-23T12:47:23;2.08;;;1.08;;
48993;SDS011;34804;49.214;12.276;2022-08-23T12:52:36;2.55;;;1.20;;
48993;SDS011;34804;49.214;12.276;2022-08-23T12:55:13;6.43;;;1.20;;
48993;SDS011;34804;49.214;12.276;2022-08-23T12:57:43;2.35;;;1.10;;
48993;SDS011;34804;49.214;12.276;2022-08-23T13:00:21;1.90;;;1.10;;
48993;SDS011;34804;49.214;12.276;2022-08-23T13:02:59;2.55;;;1.23;;
48993;SDS011;34804;49.214;12.276;2022-08-23T13:05:35;1.38;;;1.00;;
48993;SDS011;34804;49.214;12.276;2022-08-23T13:08:10;2.08;;;1.02;;
48993;SDS011;34804;49.214;12.276;2022-08-23T13:10:42;2.42;;;1.13;;
48993;SDS011;34804;49.214;12.276;2022-08-23T13:13:11;3.42;;;1.10;;
48993;SDS011;34804;49.214;12.276;2022-08-23T13:15:51;2.78;;;1.20;;
48993;SDS011;34804;49.214;12.276;2022-08-23T13:18:28;1.98;;;1.00;;
48993;SDS011;34804;49.214;12.276;2022-08-23T13:23:49;1.92;;;1.20;;
48993;SDS011;34804;49.214;12.276;2022-08-23T13:26:23;2.75;;;1.13;;
48993;SDS011;34804;49.214;12.276;2022-08-23T13:29:09;2.38;;;1.20;;
48993;SDS011;34804;49.214;12.276;2022-08-23T13:31:53;1.95;;;1.10;;
48993;SDS011;34804;49.214;12.276;2022-08-23T13:37:15;4.47;;;1.20;;
48993;SDS011;34804;49.214;12.276;2022-08-23T13:39:44;2.47;;;1.10;;
48993;SDS011;34804;49.214;12.276;2022-08-23T13:42:14;1.98;;;1.00;;
48993;SDS011;34804;49.214;12.276;2022-08-23T13:44:57;1.83;;;1.00;;
48993;SDS011;34804;49.214;12.276;2022-08-23T13:47:32;1.55;;;0.90;;
48993;SDS011;34804;49.214;12.276;2022-08-23T13:50:03;3.05;;;0.95;;
48993;SDS011;34804;49.214;12.276;2022-08-23T13:52:36;2.25;;;1.10;;
48993;SDS011;34804;49.214;12.276;2022-08-23T13:55:24;2.20;;;0.90;;
48993;SDS011;34804;49.214;12.276;2022-08-23T13:57:53;1.88;;;1.00;;
48993;SDS011;34804;49.214;12.276;2022-08-23T14:00:21;1.50;;;0.93;;
48993;SDS011;34804;49.214;12.276;2022-08-23T14:02:48;1.65;;;0.90;;
48993;SDS011;34804;49.214;12.276;2022-08-23T14:05:17;1.83;;;1.00;;
48993;SDS011;34804;49.214;12.276;2022-08-23T14:07:47;2.67;;;1.05;;
48993;SDS011;34804;49.214;12.276;2022-08-23T14:10:20;1.88;;;0.93;;
48993;SDS011;34804;49.214;12.276;2022-08-23T14:12:49;2.58;;;1.23;;
48993;SDS011;34804;49.214;12.276;2022-08-23T14:15:18;2.58;;;1.10;;
48993;SDS011;34804;49.214;12.276;2022-08-23T14:18:05;1.77;;;1.00;;
48993;SDS011;34804;49.214;12.276;2022-08-23T14:20:33;1.73;;;0.95;;
48993;SDS011;34804;49.214;12.276;2022-08-23T14:23:11;2.25;;;1.10;;
48993;SDS011;34804;49.214;12.276;2022-08-23T14:25:38;1.65;;;0.93;;
48993;SDS011;34804;49.214;12.276;2022-08-23T14:28:05;2.90;;;1.02;;
48993;SDS011;34804;49.214;12.276;2022-08-23T14:30:32;3.42;;;1.20;;
48993;SDS011;34804;49.214;12.276;2022-08-23T14:33:01;2.35;;;1.15;;
48993;SDS011;34804;49.214;12.276;2022-08-23T14:35:29;2.25;;;1.23;;
48993;SDS011;34804;49.214;12.276;2022-08-23T14:37:56;3.00;;;1.25;;
48993;SDS011;34804;49.214;12.276;2022-08-23T14:40:31;3.47;;;1.30;;
48993;SDS011;34804;49.214;12.276;2022-08-23T14:43:00;1.95;;;1.00;;
48993;SDS011;34804;49.214;12.276;2022-08-23T14:45:27;2.17;;;1.30;;
48993;SDS011;34804;49.214;12.276;2022-08-23T14:47:54;2.53;;;1.30;;
48993;SDS011;34804;49.214;12.276;2022-08-23T14:50:21;3.88;;;1.30;;
48993;SDS011;34804;49.214;12.276;2022-08-23T14:52:47;2.08;;;1.15;;
48993;SDS011;34804;49.214;12.276;2022-08-23T14:55:14;3.42;;;1.60;;
48993;SDS011;34804;49.214;12.276;2022-08-23T14:57:41;3.40;;;1.60;;
48993;SDS011;34804;49.214;12.276;2022-08-23T15:00:09;2.60;;;1.40;;
48993;SDS011;34804;49.214;12.276;2022-08-23T15:02:42;3.45;;;1.48;;
48993;SDS011;34804;49.214;12.276;2022-08-23T15:05:11;3.03;;;1.40;;
48993;SDS011;34804;49.214;12.276;2022-08-23T15:07:40;3.15;;;1.70;;
48993;SDS011;34804;49.214;12.276;2022-08-23T15:10:07;2.75;;;1.45;;
48993;SDS011;34804;49.214;12.276;2022-08-23T15:12:35;3.97;;;1.63;;
48993;SDS011;34804;49.214;12.276;2022-08-23T15:15:22;5.65;;;1.60;;
48993;SDS011;34804;49.214;12.276;2022-08-23T15:17:57;3.03;;;1.63;;
48993;SDS011;34804;49.214;12.276;2022-08-23T15:20:27;6.47;;;1.80;;
48993;SDS011;34804;49.214;12.276;2022-08-23T15:22:57;2.47;;;1.40;;
48993;SDS011;34804;49.214;12.276;2022-08-23T15:25:27;2.55;;;1.38;;
48993;SDS011;34804;49.214;12.276;2022-08-23T15:27:56;4.38;;;1.63;;
48993;SDS011;34804;49.214;12.276;2022-08-23T15:30:23;3.88;;;1.70;;
48993;SDS011;34804;49.214;12.276;2022-08-23T15:32:50;4.90;;;1.90;;
48993;SDS011;34804;49.214;12.276;2022-08-23T15:35:22;3.35;;;1.70;;
48993;SDS011;34804;49.214;12.276;2022-08-23T15:37:50;4.53;;;1.70;;
48993;SDS011;34804;49.214;12.276;2022-08-23T15:40:18;3.25;;;1.60;;
48993;SDS011;34804;49.214;12.276;2022-08-23T15:42:45;3.40;;;1.90;;
48993;SDS011;34804;49.214;12.276;2022-08-23T15:45:12;3.17;;;1.67;;
48993;SDS011;34804;49.214;12.276;2022-08-23T15:47:53;5.05;;;1.90;;
48993;SDS011;34804;49.214;12.276;2022-08-23T15:50:22;3.22;;;1.50;;
48993;SDS011;34804;49.214;12.276;2022-08-23T15:52:54;4.75;;;1.80;;
48993;SDS011;34804;49.214;12.276;2022-08-23T15:55:22;2.97;;;1.50;;
48993;SDS011;34804;49.214;12.276;2022-08-23T15:57:53;3.58;;;1.50;;
48993;SDS011;34804;49.214;12.276;2022-08-23T16:00:21;6.85;;;1.60;;
48993;SDS011;34804;49.214;12.276;2022-08-23T16:02:48;4.93;;;1.65;;
48993;SDS011;34804;49.214;12.276;2022-08-23T16:05:37;3.45;;;1.98;;
48993;SDS011;34804;49.214;12.276;2022-08-23T16:08:05;3.05;;;1.60;;
48993;SDS011;34804;49.214;12.276;2022-08-23T16:10:33;3.55;;;1.70;;
48993;SDS011;34804;49.214;12.276;2022-08-23T16:13:00;4.15;;;1.70;;
48993;SDS011;34804;49.214;12.276;2022-08-23T16:15:29;3.33;;;1.80;;
48993;SDS011;34804;49.214;12.276;2022-08-23T16:17:56;3.13;;;1.75;;
48993;SDS011;34804;49.214;12.276;2022-08-23T16:20:23;5.10;;;2.50;;
48993;SDS011;34804;49.214;12.276;2022-08-23T16:22:50;4.15;;;2.30;;
48993;SDS011;34804;49.214;12.276;2022-08-23T16:25:17;5.95;;;2.28;;
48993;SDS011;34804;49.214;12.276;2022-08-23T16:27:44;5.68;;;2.38;;
48993;SDS011;34804;49.214;12.276;2022-08-23T16:30:12;3.15;;;1.60;;
48993;SDS011;34804;49.214;12.276;2022-08-23T16:32:40;3.83;;;1.63;;
48993;SDS011;34804;49.214;12.276;2022-08-23T16:35:07;3.78;;;1.40;;
48993;SDS011;34804;49.214;12.276;2022-08-23T16:37:34;2.78;;;1.55;;
48993;SDS011;34804;49.214;12.276;2022-08-23T16:40:02;3.03;;;1.50;;
48993;SDS011;34804;49.214;12.276;2022-08-23T16:42:32;3.05;;;1.48;;
48993;SDS011;34804;49.214;12.276;2022-08-23T16:44:59;3.95;;;1.85;;
48993;SDS011;34804;49.214;12.276;2022-08-23T16:47:26;4.95;;;2.38;;
48993;SDS011;34804;49.214;12.276;2022-08-23T16:49:53;4.85;;;2.22;;
48993;SDS011;34804;49.214;12.276;2022-08-23T16:52:21;3.05;;;1.73;;
48993;SDS011;34804;49.214;12.276;2022-08-23T16:55:01;3.92;;;1.75;;
48993;SDS011;34804;49.214;12.276;2022-08-23T16:57:31;3.60;;;1.67;;